createdAt,value
2019-03-25T00:01:00.067Z,3.10
2019-03-25T00:03:29.935Z,3.20
2019-03-25T00:05:59.823Z,3.20
2019-03-25T00:08:29.691Z,3.10
2019-03-25T00:10:59.767Z,3.10
2019-03-25T00:13:29.643Z,3.00
2019-03-25T00:15:59.523Z,3.00
2019-03-25T00:18:29.479Z,3.00
2019-03-25T00:20:59.418Z,3.00
2019-03-25T00:23:29.278Z,3.00
2019-03-25T00:25:59.166Z,3.00
2019-03-25T00:28:29.040Z,3.00
2019-03-25T00:30:58.980Z,3.00
2019-03-25T00:33:28.930Z,3.00
2019-03-25T00:35:59.063Z,2.80
2019-03-25T00:38:28.933Z,3.00
2019-03-25T00:40:58.814Z,2.90
2019-03-25T00:43:28.686Z,2.90
2019-03-25T00:45:58.563Z,2.90
2019-03-25T00:48:28.434Z,2.80
2019-03-25T00:50:58.315Z,2.90
2019-03-25T00:53:28.194Z,2.90
2019-03-25T00:55:58.310Z,2.70
2019-03-25T00:58:28.179Z,2.80
2019-03-25T01:00:58.051Z,2.70
2019-03-25T01:03:27.927Z,2.80
2019-03-25T01:05:57.883Z,2.70
2019-03-25T01:08:27.827Z,2.70
2019-03-25T01:10:57.695Z,2.70
2019-03-25T01:13:27.562Z,2.60
2019-03-25T01:15:57.440Z,2.70
2019-03-25T01:18:27.390Z,2.60
2019-03-25T01:20:57.326Z,2.50
2019-03-25T01:23:27.207Z,2.50
2019-03-25T01:25:57.094Z,2.40
2019-03-25T01:28:27.047Z,2.40
2019-03-25T01:30:57.039Z,2.40
2019-03-25T01:33:26.919Z,2.50
2019-03-25T01:35:56.802Z,2.50
2019-03-25T01:38:26.774Z,2.50
2019-03-25T01:40:56.737Z,2.50
2019-03-25T01:43:26.606Z,2.40
2019-03-25T01:45:56.582Z,2.40
2019-03-25T01:48:26.446Z,2.30
2019-03-25T01:50:56.318Z,2.20
2019-03-25T01:53:26.214Z,2.20
2019-03-25T01:55:56.086Z,2.20
2019-03-25T01:58:26.044Z,2.20
2019-03-25T02:00:55.901Z,2.20
2019-03-25T02:03:25.843Z,2.20
2019-03-25T02:05:55.999Z,2.20
2019-03-25T02:08:25.873Z,2.20
2019-03-25T02:10:56.046Z,2.20
2019-03-25T02:13:25.921Z,2.20
2019-03-25T02:15:55.799Z,2.20
2019-03-25T02:18:25.751Z,2.20
2019-03-25T02:20:56.300Z,2.20
2019-03-25T02:23:26.234Z,2.10
2019-03-25T02:25:56.106Z,2.20
2019-03-25T02:28:25.966Z,2.20
2019-03-25T02:30:55.848Z,2.20
2019-03-25T02:33:25.792Z,2.10
2019-03-25T02:35:55.665Z,2.10
2019-03-25T02:38:25.594Z,2.00
2019-03-25T02:40:55.550Z,2.00
2019-03-25T02:43:25.498Z,2.00
2019-03-25T02:45:55.379Z,2.00
2019-03-25T02:48:25.256Z,2.00
2019-03-25T02:50:55.203Z,2.00
2019-03-25T02:53:25.136Z,2.00
2019-03-25T02:55:55.064Z,2.00
2019-03-25T02:58:25.053Z,1.90
2019-03-25T03:00:54.958Z,1.90
2019-03-25T03:03:24.819Z,1.80
2019-03-25T03:05:54.696Z,1.90
2019-03-25T03:08:24.571Z,1.90
2019-03-25T03:10:54.519Z,1.80
2019-03-25T03:13:24.422Z,1.80
2019-03-25T03:15:54.360Z,1.80
2019-03-25T03:18:24.297Z,1.80
2019-03-25T03:20:54.151Z,1.80
2019-03-25T03:23:24.023Z,1.80
2019-03-25T03:25:57.527Z,1.90
2019-03-25T03:28:25.535Z,1.80
2019-03-25T03:30:55.476Z,1.70
2019-03-25T03:33:25.484Z,1.80
2019-03-25T03:35:55.376Z,1.80
2019-03-25T03:38:25.321Z,1.80
2019-03-25T03:40:55.581Z,1.80
2019-03-25T03:43:25.518Z,1.70
2019-03-25T03:45:55.872Z,1.70
2019-03-25T03:48:25.912Z,1.60
2019-03-25T03:50:55.859Z,1.60
2019-03-25T03:53:25.935Z,1.70
2019-03-25T03:56:11.436Z,1.60
2019-03-25T03:58:29.052Z,1.70
2019-03-25T04:00:58.920Z,1.60
2019-03-25T04:03:28.865Z,1.60
2019-03-25T04:05:58.790Z,1.60
2019-03-25T04:08:28.662Z,1.60
2019-03-25T04:10:58.611Z,1.60
2019-03-25T04:13:28.595Z,1.50
2019-03-25T04:16:01.226Z,1.60
2019-03-25T04:18:30.040Z,1.60
2019-03-25T04:20:59.900Z,1.50
2019-03-25T04:23:29.764Z,1.40
2019-03-25T04:25:59.721Z,1.50
2019-03-25T04:28:29.675Z,1.50
2019-03-25T04:30:59.618Z,1.60
2019-03-25T04:33:29.561Z,1.50
2019-03-25T04:35:59.471Z,1.50
2019-03-25T04:38:29.355Z,1.50
2019-03-25T04:40:59.289Z,1.50
2019-03-25T04:43:29.157Z,1.50
2019-03-25T04:45:59.110Z,1.50
2019-03-25T04:48:29.038Z,1.50
2019-03-25T04:50:58.910Z,1.40
2019-03-25T04:53:28.912Z,1.40
2019-03-25T04:55:58.791Z,1.40
2019-03-25T04:58:28.667Z,1.30
2019-03-25T05:00:58.539Z,1.30
2019-03-25T05:03:28.410Z,1.30
2019-03-25T05:05:58.296Z,1.40
2019-03-25T05:08:28.221Z,1.30
2019-03-25T05:10:58.487Z,1.40
2019-03-25T05:13:28.451Z,1.40
2019-03-25T05:15:58.395Z,1.40
2019-03-25T05:18:28.336Z,1.40
2019-03-25T05:20:58.204Z,1.40
2019-03-25T05:23:28.079Z,1.30
2019-03-25T05:25:57.998Z,1.40
2019-03-25T05:28:27.878Z,1.30
2019-03-25T05:30:57.751Z,1.40
2019-03-25T05:33:27.697Z,1.40
2019-03-25T05:35:57.587Z,1.30
2019-03-25T05:38:27.528Z,1.40
2019-03-25T05:40:57.462Z,1.40
2019-03-25T05:43:27.406Z,1.40
2019-03-25T05:45:57.280Z,1.40
2019-03-25T05:48:27.155Z,1.50
2019-03-25T05:50:57.064Z,1.50
2019-03-25T05:53:27.006Z,1.50
2019-03-25T05:55:56.881Z,1.60
2019-03-25T05:58:26.839Z,1.60
2019-03-25T06:00:56.702Z,1.70
2019-03-25T06:03:26.834Z,1.70
2019-03-25T06:05:56.734Z,1.70
2019-03-25T06:08:26.667Z,1.70
2019-03-25T06:10:57.102Z,1.70
2019-03-25T06:13:26.979Z,1.70
2019-03-25T06:15:56.967Z,1.70
2019-03-25T06:18:26.890Z,1.70
2019-03-25T06:20:56.767Z,1.70
2019-03-25T06:23:26.671Z,1.80
2019-03-25T06:25:56.608Z,1.80
2019-03-25T06:28:27.130Z,1.90
2019-03-25T06:30:57.098Z,2.00
2019-03-25T06:33:27.026Z,2.00
2019-03-25T06:35:56.922Z,2.10
2019-03-25T06:38:27.017Z,2.20
2019-03-25T06:40:56.950Z,2.30
2019-03-25T06:43:26.814Z,2.30
2019-03-25T06:45:56.690Z,2.40
2019-03-25T06:48:26.556Z,2.50
2019-03-25T06:50:56.506Z,2.40
2019-03-25T06:53:26.407Z,2.50
2019-03-25T06:55:56.280Z,2.60
2019-03-25T06:58:26.200Z,2.70
2019-03-25T07:00:56.075Z,2.70
2019-03-25T07:03:25.934Z,2.80
2019-03-25T07:05:55.843Z,2.90
2019-03-25T07:08:25.811Z,2.90
2019-03-25T07:10:55.675Z,2.90
2019-03-25T07:13:26.066Z,2.90
2019-03-25T07:15:55.923Z,2.90
2019-03-25T07:18:25.883Z,3.00
2019-03-25T07:20:55.752Z,3.10
2019-03-25T07:23:25.616Z,3.10
2019-03-25T07:25:55.475Z,3.10
2019-03-25T07:28:25.574Z,3.00
2019-03-25T07:30:55.527Z,3.00
2019-03-25T07:33:25.491Z,3.10
2019-03-25T07:35:55.367Z,3.20
2019-03-25T07:38:25.308Z,3.20
2019-03-25T07:40:55.253Z,3.20
2019-03-25T07:43:25.204Z,3.10
2019-03-25T07:45:55.481Z,3.10
2019-03-25T07:48:25.407Z,3.20
2019-03-25T07:50:55.279Z,3.10
2019-03-25T07:53:25.146Z,3.10
2019-03-25T07:55:55.081Z,3.10
2019-03-25T07:58:25.003Z,3.30
2019-03-25T08:00:54.921Z,3.60
2019-03-25T08:03:24.879Z,4.00
2019-03-25T08:05:54.753Z,4.20
2019-03-25T08:08:24.710Z,4.50
2019-03-25T08:10:54.605Z,4.60
2019-03-25T08:13:24.667Z,5.10
2019-03-25T08:15:54.687Z,5.50
2019-03-25T08:18:24.547Z,5.40
2019-03-25T08:20:54.415Z,5.30
2019-03-25T08:23:24.346Z,5.00
2019-03-25T08:25:54.207Z,4.70
2019-03-25T08:28:24.080Z,4.60
2019-03-25T08:30:53.951Z,4.40
2019-03-25T08:33:23.803Z,4.20
2019-03-25T08:35:53.693Z,3.90
2019-03-25T08:38:23.547Z,3.70
2019-03-25T08:40:53.411Z,3.60
2019-03-25T08:43:23.345Z,3.40
2019-03-25T08:45:53.206Z,3.50
2019-03-25T08:48:23.076Z,3.50
2019-03-25T08:50:53.202Z,3.50
2019-03-25T08:53:23.079Z,3.40
2019-03-25T08:55:52.957Z,3.50
2019-03-25T08:58:22.908Z,3.50
2019-03-25T09:00:52.941Z,3.70
2019-03-25T09:03:22.890Z,3.80
2019-03-25T09:05:52.754Z,4.00
2019-03-25T09:08:23.022Z,4.20
2019-03-25T09:10:52.905Z,4.30
2019-03-25T09:13:22.840Z,4.20
2019-03-25T09:15:52.728Z,4.40
2019-03-25T09:18:22.658Z,4.40
2019-03-25T09:20:52.515Z,4.60
2019-03-25T09:23:22.372Z,4.80
2019-03-25T09:25:52.444Z,4.80
2019-03-25T09:28:24.398Z,5.00
2019-03-25T09:31:21.010Z,5.40
2019-03-25T09:33:51.279Z,5.20
2019-03-25T09:36:22.400Z,5.70
2019-03-25T09:38:52.741Z,5.90
2019-03-25T09:41:23.018Z,6.30
2019-03-25T09:43:52.954Z,6.50
2019-03-25T09:46:23.318Z,6.70
2019-03-25T09:48:53.186Z,6.70
2019-03-25T09:51:23.047Z,6.90
2019-03-25T09:53:52.922Z,7.10
2019-03-25T09:56:22.849Z,7.30
2019-03-25T09:58:52.717Z,7.40
2019-03-25T10:01:22.648Z,7.80
2019-03-25T10:03:52.515Z,8.10
2019-03-25T10:06:22.387Z,8.00
2019-03-25T10:08:52.250Z,7.70
2019-03-25T10:11:22.110Z,8.00
2019-03-25T10:13:51.972Z,8.20
2019-03-25T10:16:21.827Z,8.20
2019-03-25T10:18:51.682Z,8.70
2019-03-25T10:21:21.539Z,8.70
2019-03-25T10:23:52.004Z,9.20
2019-03-25T10:26:22.124Z,9.30
2019-03-25T10:28:53.058Z,9.40
2019-03-25T10:31:22.929Z,9.00
2019-03-25T10:33:52.786Z,9.30
2019-03-25T10:36:22.651Z,9.10
2019-03-25T10:38:52.506Z,9.20
2019-03-25T10:41:22.606Z,9.00
2019-03-25T10:43:52.466Z,8.90
2019-03-25T10:46:22.322Z,8.60
2019-03-25T10:48:52.417Z,8.40
2019-03-25T10:51:22.270Z,8.10
2019-03-25T10:53:52.174Z,8.70
2019-03-25T10:56:22.040Z,9.10
2019-03-25T10:58:58.009Z,9.40
2019-03-25T11:01:23.546Z,9.90
2019-03-25T11:03:53.410Z,10.20
2019-03-25T11:06:23.279Z,10.50
2019-03-25T11:08:53.172Z,10.20
2019-03-25T11:11:23.111Z,10.00
2019-03-25T11:13:53.019Z,10.10
2019-03-25T11:16:22.891Z,10.30
2019-03-25T11:18:52.767Z,10.20
2019-03-25T11:21:22.891Z,10.90
2019-03-25T11:23:52.752Z,11.00
2019-03-25T11:26:22.623Z,11.40
2019-03-25T11:28:52.482Z,11.10
2019-03-25T11:33:51.314Z,10.70
2019-03-25T11:36:21.176Z,10.80
2019-03-25T11:38:51.038Z,11.00
2019-03-25T11:41:20.891Z,11.50
2019-03-25T11:43:50.762Z,11.20
2019-03-25T11:46:20.630Z,11.30
2019-03-25T11:48:50.494Z,11.60
2019-03-25T11:51:20.355Z,12.20
2019-03-25T11:53:50.546Z,11.80
2019-03-25T11:56:20.467Z,11.90
2019-03-25T11:58:50.337Z,11.70
2019-03-25T12:01:20.262Z,12.00
2019-03-25T12:03:50.132Z,12.10
2019-03-25T12:06:20.079Z,11.60
2019-03-25T12:08:49.972Z,12.20
2019-03-25T12:11:19.860Z,12.00
2019-03-25T12:13:49.721Z,12.20
2019-03-25T12:16:19.587Z,13.00
2019-03-25T12:18:49.447Z,13.00
2019-03-25T12:21:19.307Z,13.20
2019-03-25T12:23:49.166Z,13.10
2019-03-25T12:26:19.032Z,12.80
2019-03-25T12:28:48.895Z,13.10
2019-03-25T12:31:18.773Z,13.10
2019-03-25T12:33:48.639Z,12.80
2019-03-25T12:36:18.498Z,12.90
2019-03-25T12:38:48.359Z,12.90
2019-03-25T12:41:18.254Z,13.60
2019-03-25T12:43:48.106Z,13.70
2019-03-25T12:46:17.970Z,13.30
2019-03-25T12:48:47.843Z,13.70
2019-03-25T12:51:17.694Z,13.70
2019-03-25T12:53:47.567Z,14.00
2019-03-25T12:56:17.438Z,13.60
2019-03-25T12:58:47.301Z,13.80
2019-03-25T13:01:17.236Z,14.30
2019-03-25T13:03:47.091Z,14.00
2019-03-25T13:06:16.955Z,13.90
2019-03-25T13:08:46.834Z,13.50
2019-03-25T13:11:16.728Z,14.20
2019-03-25T13:13:46.591Z,14.20
2019-03-25T13:16:16.448Z,14.70
2019-03-25T13:18:46.318Z,14.30
2019-03-25T13:21:16.184Z,13.90
2019-03-25T13:23:46.125Z,14.60
2019-03-25T13:26:15.979Z,15.50
2019-03-25T13:28:45.830Z,15.10
2019-03-25T13:31:15.690Z,15.30
2019-03-25T13:33:45.610Z,16.10
2019-03-25T13:36:15.597Z,16.40
2019-03-25T13:38:45.531Z,15.60
2019-03-25T13:41:15.384Z,15.70
2019-03-25T13:43:45.235Z,16.50
2019-03-25T13:46:15.092Z,16.80
2019-03-25T13:48:44.946Z,16.40
2019-03-25T13:51:14.807Z,15.80
2019-03-25T13:53:44.683Z,15.90
2019-03-25T13:56:14.545Z,15.30
2019-03-25T13:58:44.446Z,15.90
2019-03-25T14:01:14.322Z,15.50
2019-03-25T14:03:44.195Z,15.20
2019-03-25T14:06:14.046Z,15.40
2019-03-25T14:08:43.906Z,15.80
2019-03-25T14:11:13.768Z,15.90
2019-03-25T14:13:49.212Z,16.10
2019-03-25T14:16:15.205Z,16.20
2019-03-25T14:18:45.136Z,17.20
2019-03-25T14:21:14.991Z,17.60
2019-03-25T14:23:44.851Z,17.70
2019-03-25T14:26:14.703Z,16.80
2019-03-25T14:28:44.634Z,16.50
2019-03-25T14:31:14.495Z,16.30
2019-03-25T14:33:44.374Z,16.80
2019-03-25T14:36:14.250Z,17.10
2019-03-25T14:38:44.118Z,16.60
2019-03-25T14:41:14.082Z,16.80
2019-03-25T14:43:43.951Z,17.60
2019-03-25T14:46:13.850Z,18.30
2019-03-25T14:48:43.718Z,18.40
2019-03-25T14:51:13.655Z,18.10
2019-03-25T14:53:45.317Z,17.90
2019-03-25T14:56:15.112Z,17.70
2019-03-25T14:58:44.967Z,17.40
2019-03-25T15:01:14.861Z,17.30
2019-03-25T15:03:44.735Z,17.00
2019-03-25T15:06:14.592Z,16.20
2019-03-25T15:08:44.722Z,16.30
2019-03-25T15:11:14.612Z,14.60
2019-03-25T15:13:44.702Z,13.60
2019-03-25T15:16:14.882Z,14.10
2019-03-25T15:18:44.771Z,13.60
2019-03-25T15:21:14.635Z,12.70
2019-03-25T15:23:44.502Z,12.00
2019-03-25T15:26:14.381Z,11.30
2019-03-25T15:28:44.242Z,10.60
2019-03-25T15:31:14.367Z,10.50
2019-03-25T15:33:44.230Z,10.40
2019-03-25T15:36:14.123Z,10.00
2019-03-25T15:38:44.046Z,9.90
2019-03-25T15:41:13.918Z,9.60
2019-03-25T15:43:43.798Z,9.40
2019-03-25T15:46:13.666Z,9.30
2019-03-25T15:48:43.771Z,9.50
2019-03-25T15:51:13.709Z,9.60
2019-03-25T15:53:43.571Z,9.70
2019-03-25T15:56:13.438Z,9.70
2019-03-25T15:58:43.316Z,9.60
2019-03-25T16:01:13.467Z,9.70
2019-03-25T16:03:43.339Z,9.50
2019-03-25T16:06:13.212Z,9.20
2019-03-25T16:08:43.094Z,9.00
2019-03-25T16:11:12.970Z,8.90
2019-03-25T16:13:42.898Z,8.80
2019-03-25T16:16:12.758Z,8.70
2019-03-25T16:18:43.204Z,8.60
2019-03-25T16:21:13.071Z,8.30
2019-03-25T16:23:43.002Z,8.00
2019-03-25T16:26:12.947Z,8.00
2019-03-25T16:28:42.845Z,7.80
2019-03-25T16:31:12.863Z,7.60
2019-03-25T16:33:42.724Z,7.50
2019-03-25T16:36:12.589Z,7.40
2019-03-25T16:38:42.450Z,7.30
2019-03-25T16:41:12.436Z,7.20
2019-03-25T16:43:42.362Z,7.10
2019-03-25T16:46:12.245Z,7.10
2019-03-25T16:48:42.182Z,7.00
2019-03-25T16:51:12.046Z,7.10
2019-03-25T16:53:41.947Z,6.90
2019-03-25T16:56:11.801Z,6.80
2019-03-25T16:58:41.739Z,6.90
2019-03-25T17:01:11.603Z,6.90
2019-03-25T17:03:41.486Z,6.80
2019-03-25T17:06:11.413Z,6.60
2019-03-25T17:08:41.290Z,6.50
2019-03-25T17:11:11.234Z,6.40
2019-03-25T17:13:41.506Z,6.30
2019-03-25T17:16:11.603Z,6.30
2019-03-25T17:18:41.482Z,6.10
2019-03-25T17:21:11.430Z,6.10
2019-03-25T17:23:41.283Z,5.90
2019-03-25T17:26:11.140Z,5.90
2019-03-25T17:28:41.018Z,5.70
2019-03-25T17:31:20.572Z,5.70
2019-03-25T17:33:42.687Z,5.70
2019-03-25T17:36:12.622Z,5.60
2019-03-25T17:38:42.479Z,5.60
2019-03-25T17:41:12.358Z,5.50
2019-03-25T17:43:42.244Z,5.50
2019-03-25T17:46:12.104Z,5.50
2019-03-25T17:48:42.038Z,5.40
2019-03-25T17:51:11.916Z,5.20
2019-03-25T17:53:41.846Z,5.20
2019-03-25T17:56:11.701Z,5.10
2019-03-25T17:58:41.635Z,5.10
2019-03-25T18:01:32.401Z,5.00
2019-03-25T18:04:01.302Z,5.00
2019-03-25T18:06:31.285Z,5.00
2019-03-25T18:09:01.202Z,4.90
2019-03-25T18:11:31.083Z,4.90
2019-03-25T18:14:01.027Z,4.90
2019-03-25T18:16:30.892Z,4.80
2019-03-25T18:19:00.763Z,4.70
2019-03-25T18:21:30.651Z,4.70
2019-03-25T18:24:00.571Z,4.80
2019-03-25T18:26:30.426Z,4.70
2019-03-25T18:29:00.284Z,4.80
2019-03-25T18:31:30.269Z,4.70
2019-03-25T18:34:00.134Z,4.70
2019-03-25T18:36:29.995Z,4.70
2019-03-25T18:38:59.883Z,4.70
2019-03-25T18:41:29.734Z,4.70
2019-03-25T18:43:59.963Z,4.60
2019-03-25T18:46:29.851Z,4.60
2019-03-25T18:48:59.738Z,4.60
2019-03-25T18:51:29.606Z,4.70
2019-03-25T18:53:59.487Z,4.60
2019-03-25T18:56:29.444Z,4.60
2019-03-25T18:58:59.595Z,4.60
2019-03-25T19:01:29.747Z,4.50
2019-03-25T19:03:59.639Z,4.40
2019-03-25T19:06:29.994Z,4.40
2019-03-25T19:09:00.367Z,4.30
2019-03-25T19:11:31.332Z,4.30
2019-03-25T19:14:01.774Z,4.30
2019-03-25T19:16:31.674Z,4.30
2019-03-25T19:19:01.608Z,4.30
2019-03-25T19:21:31.485Z,4.40
2019-03-25T19:24:01.350Z,4.40
2019-03-25T19:26:31.207Z,4.30
2019-03-25T19:29:01.080Z,4.30
2019-03-25T19:31:31.021Z,4.30
2019-03-25T19:34:00.977Z,4.20
2019-03-25T19:36:30.939Z,4.10
2019-03-25T19:39:00.849Z,4.10
2019-03-25T19:41:32.614Z,4.10
2019-03-25T19:44:02.406Z,4.10
2019-03-25T19:46:32.306Z,4.10
2019-03-25T19:49:02.245Z,4.10
2019-03-25T19:51:32.151Z,4.10
2019-03-25T19:54:02.044Z,4.10
2019-03-25T19:56:31.971Z,4.10
2019-03-25T19:59:01.855Z,4.10
2019-03-25T20:01:31.807Z,4.10
2019-03-25T20:04:01.746Z,4.00
2019-03-25T20:06:31.641Z,4.00
2019-03-25T20:09:01.885Z,4.10
2019-03-25T20:11:31.899Z,3.90
2019-03-25T20:14:02.205Z,3.90
2019-03-25T20:16:32.146Z,3.90
2019-03-25T20:19:02.302Z,3.80
2019-03-25T20:21:32.478Z,3.80
2019-03-25T20:24:02.688Z,3.80
2019-03-25T20:26:32.615Z,3.80
2019-03-25T20:29:02.503Z,3.80
2019-03-25T20:31:32.426Z,3.80
2019-03-25T20:34:10.784Z,3.80
2019-03-25T20:36:33.886Z,3.80
2019-03-25T20:39:05.230Z,3.90
2019-03-25T20:41:35.098Z,3.80
2019-03-25T20:44:05.037Z,3.70
2019-03-25T20:46:35.031Z,3.60
2019-03-25T20:49:04.897Z,3.70
2019-03-25T20:51:34.889Z,3.70
2019-03-25T20:54:04.794Z,3.70
2019-03-25T20:56:34.738Z,3.70
2019-03-25T20:59:04.667Z,3.60
2019-03-25T21:01:34.524Z,3.60
2019-03-25T21:04:04.466Z,3.50
2019-03-25T21:06:34.348Z,3.40
2019-03-25T21:09:05.698Z,3.50
2019-03-25T21:11:35.594Z,3.50
2019-03-25T21:14:05.530Z,3.40
2019-03-25T21:16:35.438Z,3.30
2019-03-25T21:19:05.367Z,3.40
2019-03-25T21:21:35.234Z,3.40
2019-03-25T21:24:05.099Z,3.40
2019-03-25T21:26:34.957Z,3.20
2019-03-25T21:29:04.811Z,3.20
2019-03-25T21:31:34.689Z,3.20
2019-03-25T21:34:04.553Z,3.20
2019-03-25T21:36:34.768Z,3.30
2019-03-25T21:39:06.985Z,3.30
2019-03-25T21:41:36.921Z,3.30
2019-03-25T21:44:06.902Z,3.20
2019-03-25T21:46:36.811Z,3.30
2019-03-25T21:49:06.719Z,3.30
2019-03-25T21:51:36.650Z,3.40
2019-03-25T21:54:06.753Z,3.30
2019-03-25T21:56:36.660Z,3.20
2019-03-25T21:59:06.959Z,3.30
2019-03-25T22:01:37.070Z,3.20
2019-03-25T22:04:07.279Z,3.30
2019-03-25T22:06:37.155Z,3.30
2019-03-25T22:09:08.208Z,3.30
2019-03-25T22:11:38.071Z,3.40
2019-03-25T22:14:07.934Z,3.30
2019-03-25T22:16:37.805Z,3.30
2019-03-25T22:19:07.668Z,3.30
2019-03-25T22:21:37.532Z,3.30
2019-03-25T22:24:07.392Z,3.20
2019-03-25T22:26:37.327Z,3.20
2019-03-25T22:29:07.184Z,3.10
2019-03-25T22:31:37.333Z,3.20
2019-03-25T22:34:07.267Z,3.20
2019-03-25T22:36:37.154Z,3.10
2019-03-25T22:39:08.626Z,3.20
2019-03-25T22:41:38.499Z,3.00
2019-03-25T22:44:08.443Z,3.00
2019-03-25T22:46:38.310Z,2.90
2019-03-25T22:49:08.238Z,2.90
2019-03-25T22:51:38.102Z,2.90
2019-03-25T22:54:07.958Z,3.00
2019-03-25T22:56:37.832Z,3.00
2019-03-25T22:59:07.759Z,2.90
2019-03-25T23:01:37.634Z,2.90
2019-03-25T23:04:07.506Z,2.90
2019-03-25T23:06:37.403Z,2.80
2019-03-25T23:09:09.024Z,2.90
2019-03-25T23:11:38.896Z,2.90
2019-03-25T23:14:08.829Z,2.80
2019-03-25T23:16:38.711Z,2.80
2019-03-25T23:19:08.634Z,2.90
2019-03-25T23:21:38.485Z,2.80
2019-03-25T23:24:08.338Z,2.80
2019-03-25T23:26:38.190Z,2.80
2019-03-25T23:29:08.050Z,2.80
2019-03-25T23:31:37.892Z,2.90
2019-03-25T23:34:07.793Z,2.80
2019-03-25T23:36:38.099Z,2.90
2019-03-25T23:39:08.839Z,2.90
2019-03-25T23:41:38.771Z,2.90
2019-03-25T23:44:08.630Z,2.90
2019-03-25T23:46:38.503Z,3.00
2019-03-25T23:49:08.383Z,2.90
2019-03-25T23:51:38.251Z,2.90
